Main page
METAR-TAF:

Airports :

Christchurch, New Zealand

Christchurch International Airport

latitude: 43-29S, longitude: 172-33E, elevation: 38 m

Current weather observation

The report was made 31 minutes ago, at 00:00 UTC
Wind 3 kt from the North/Northeast
Temperature 13°C
Humidity 67%
Pressure 990 hPa
Visibility 10 km or more

METAR: NZCH 260000Z AUTO 03003KT 9999 FEW095/// 13/07 Q0990 NOSIG

Time: 12:31 (00:31 UTC)

Forecast

The report was made 1 hour and 26 minutes ago, at 23:05 UTC
Forecast valid from 26 at 00 UTC to 27 at 00 UTC
Wind 5 kt from the Northwest
Visibility 10 km or more
no clouds below 1500 m and no cumulonimbus
Becoming
from 26 at 02 UTC to 26 at 04 UTC
Wind 10 kt from the West/Southwest
Becoming
from 26 at 12 UTC to 26 at 14 UTC
Wind 5 kt from the West/Northwest

TAF: NZCH 252305Z 2600/2700 32005KT CAVOK BECMG 2602/2604 24010KT BECMG 2612/2614 30005KT

METAR-TAF

Weather observations and forecasts of more than 4000 airports (METAR and TAF reports).

The available stations are represented by yellow and red dots on the map.

Hover mouse over dot to see the name of the station.

Then click to see weather observations and forecasts.

To change the map : click on the green buttons with a black cross to zoom in, on the green button with a dash to zoom out, or on the green arrows for adjacent maps.


METAR-TAF: